sensor_id;sensor_type;location;lat;lon;timestamp;P1;durP1;ratioP1;P2;durP2;ratioP2
45476;SDS011;31958;51.756;-2.556;2023-07-13T00:00:00;10.90;;;3.55;;
45476;SDS011;31958;51.756;-2.556;2023-07-13T00:02:28;9.82;;;3.70;;
45476;SDS011;31958;51.756;-2.556;2023-07-13T00:04:53;11.10;;;4.03;;
45476;SDS011;31958;51.756;-2.556;2023-07-13T00:07:19;16.30;;;4.70;;
45476;SDS011;31958;51.756;-2.556;2023-07-13T00:09:48;12.05;;;3.88;;
45476;SDS011;31958;51.756;-2.556;2023-07-13T00:12:35;13.32;;;3.78;;
45476;SDS011;31958;51.756;-2.556;2023-07-13T00:15:02;10.25;;;3.50;;
45476;SDS011;31958;51.756;-2.556;2023-07-13T00:17:32;8.48;;;3.00;;
45476;SDS011;31958;51.756;-2.556;2023-07-13T00:19:57;7.07;;;3.33;;
45476;SDS011;31958;51.756;-2.556;2023-07-13T00:22:23;8.73;;;3.63;;
45476;SDS011;31958;51.756;-2.556;2023-07-13T00:24:51;6.72;;;3.30;;
45476;SDS011;31958;51.756;-2.556;2023-07-13T00:27:17;11.45;;;3.42;;
45476;SDS011;31958;51.756;-2.556;2023-07-13T00:29:42;7.22;;;3.13;;
45476;SDS011;31958;51.756;-2.556;2023-07-13T00:32:08;13.25;;;3.40;;
45476;SDS011;31958;51.756;-2.556;2023-07-13T00:34:34;7.25;;;3.10;;
45476;SDS011;31958;51.756;-2.556;2023-07-13T00:36:59;7.63;;;3.45;;
45476;SDS011;31958;51.756;-2.556;2023-07-13T00:39:25;8.20;;;3.45;;
45476;SDS011;31958;51.756;-2.556;2023-07-13T00:41:50;9.90;;;3.35;;
45476;SDS011;31958;51.756;-2.556;2023-07-13T00:44:17;10.32;;;3.40;;
45476;SDS011;31958;51.756;-2.556;2023-07-13T00:46:43;6.55;;;3.20;;
45476;SDS011;31958;51.756;-2.556;2023-07-13T00:49:09;12.15;;;3.22;;
45476;SDS011;31958;51.756;-2.556;2023-07-13T00:51:41;10.85;;;3.60;;
45476;SDS011;31958;51.756;-2.556;2023-07-13T00:54:10;6.95;;;3.30;;
45476;SDS011;31958;51.756;-2.556;2023-07-13T00:56:39;19.98;;;3.90;;
45476;SDS011;31958;51.756;-2.556;2023-07-13T00:59:05;7.15;;;3.25;;
45476;SDS011;31958;51.756;-2.556;2023-07-13T01:01:32;10.52;;;3.88;;
45476;SDS011;31958;51.756;-2.556;2023-07-13T01:03:57;12.20;;;3.78;;
45476;SDS011;31958;51.756;-2.556;2023-07-13T01:06:22;11.70;;;3.70;;
45476;SDS011;31958;51.756;-2.556;2023-07-13T01:08:48;10.55;;;3.67;;
45476;SDS011;31958;51.756;-2.556;2023-07-13T01:11:13;8.48;;;3.78;;
45476;SDS011;31958;51.756;-2.556;2023-07-13T01:13:44;11.68;;;3.88;;
45476;SDS011;31958;51.756;-2.556;2023-07-13T01:16:15;12.43;;;4.40;;
45476;SDS011;31958;51.756;-2.556;2023-07-13T01:18:45;7.82;;;3.15;;
45476;SDS011;31958;51.756;-2.556;2023-07-13T01:21:11;9.35;;;4.20;;
45476;SDS011;31958;51.756;-2.556;2023-07-13T01:23:36;12.77;;;4.15;;
45476;SDS011;31958;51.756;-2.556;2023-07-13T01:26:01;6.78;;;3.53;;
45476;SDS011;31958;51.756;-2.556;2023-07-13T01:28:27;14.10;;;3.92;;
45476;SDS011;31958;51.756;-2.556;2023-07-13T01:30:54;7.63;;;4.00;;
45476;SDS011;31958;51.756;-2.556;2023-07-13T01:33:20;13.07;;;3.95;;
45476;SDS011;31958;51.756;-2.556;2023-07-13T01:35:46;11.80;;;3.75;;
45476;SDS011;31958;51.756;-2.556;2023-07-13T01:38:13;10.18;;;3.65;;
45476;SDS011;31958;51.756;-2.556;2023-07-13T01:40:40;8.13;;;3.15;;
45476;SDS011;31958;51.756;-2.556;2023-07-13T01:43:06;12.98;;;4.63;;
45476;SDS011;31958;51.756;-2.556;2023-07-13T01:45:31;6.30;;;3.03;;
45476;SDS011;31958;51.756;-2.556;2023-07-13T01:47:57;14.35;;;4.38;;
45476;SDS011;31958;51.756;-2.556;2023-07-13T01:50:23;9.48;;;3.63;;
45476;SDS011;31958;51.756;-2.556;2023-07-13T01:52:48;10.68;;;3.33;;
45476;SDS011;31958;51.756;-2.556;2023-07-13T01:55:14;10.30;;;3.33;;
45476;SDS011;31958;51.756;-2.556;2023-07-13T01:57:39;10.77;;;3.60;;
45476;SDS011;31958;51.756;-2.556;2023-07-13T02:00:05;8.60;;;4.03;;
45476;SDS011;31958;51.756;-2.556;2023-07-13T02:02:31;12.35;;;4.03;;
45476;SDS011;31958;51.756;-2.556;2023-07-13T02:04:57;14.07;;;4.00;;
45476;SDS011;31958;51.756;-2.556;2023-07-13T02:07:22;12.07;;;3.38;;
45476;SDS011;31958;51.756;-2.556;2023-07-13T02:09:48;12.70;;;3.58;;
45476;SDS011;31958;51.756;-2.556;2023-07-13T02:12:13;12.93;;;3.63;;
45476;SDS011;31958;51.756;-2.556;2023-07-13T02:14:38;16.33;;;3.97;;
45476;SDS011;31958;51.756;-2.556;2023-07-13T02:17:04;10.60;;;4.05;;
45476;SDS011;31958;51.756;-2.556;2023-07-13T02:19:30;12.05;;;3.92;;
45476;SDS011;31958;51.756;-2.556;2023-07-13T02:21:55;5.72;;;3.38;;
45476;SDS011;31958;51.756;-2.556;2023-07-13T02:24:21;9.40;;;3.25;;
45476;SDS011;31958;51.756;-2.556;2023-07-13T02:26:46;8.65;;;3.10;;
45476;SDS011;31958;51.756;-2.556;2023-07-13T02:29:12;9.50;;;3.25;;
45476;SDS011;31958;51.756;-2.556;2023-07-13T02:31:37;14.02;;;3.83;;
45476;SDS011;31958;51.756;-2.556;2023-07-13T02:34:03;9.45;;;3.95;;
45476;SDS011;31958;51.756;-2.556;2023-07-13T02:36:29;9.35;;;3.30;;
45476;SDS011;31958;51.756;-2.556;2023-07-13T02:38:55;10.82;;;3.50;;
45476;SDS011;31958;51.756;-2.556;2023-07-13T02:41:20;12.57;;;3.53;;
45476;SDS011;31958;51.756;-2.556;2023-07-13T02:43:46;11.68;;;3.88;;
45476;SDS011;31958;51.756;-2.556;2023-07-13T02:46:11;7.40;;;3.22;;
45476;SDS011;31958;51.756;-2.556;2023-07-13T02:48:37;10.05;;;3.58;;
45476;SDS011;31958;51.756;-2.556;2023-07-13T02:51:03;11.23;;;3.60;;
45476;SDS011;31958;51.756;-2.556;2023-07-13T02:53:29;13.45;;;4.05;;
45476;SDS011;31958;51.756;-2.556;2023-07-13T02:55:54;8.57;;;3.50;;
45476;SDS011;31958;51.756;-2.556;2023-07-13T02:58:19;10.07;;;3.65;;
45476;SDS011;31958;51.756;-2.556;2023-07-13T03:00:46;7.82;;;3.47;;
45476;SDS011;31958;51.756;-2.556;2023-07-13T03:03:12;11.30;;;3.60;;
45476;SDS011;31958;51.756;-2.556;2023-07-13T03:05:40;16.33;;;3.88;;
45476;SDS011;31958;51.756;-2.556;2023-07-13T03:08:07;13.80;;;3.85;;
45476;SDS011;31958;51.756;-2.556;2023-07-13T03:10:32;14.43;;;3.95;;
45476;SDS011;31958;51.756;-2.556;2023-07-13T03:12:58;10.98;;;3.72;;
45476;SDS011;31958;51.756;-2.556;2023-07-13T03:15:23;13.10;;;3.63;;
45476;SDS011;31958;51.756;-2.556;2023-07-13T03:17:48;9.00;;;3.80;;
45476;SDS011;31958;51.756;-2.556;2023-07-13T03:20:14;9.38;;;3.40;;
45476;SDS011;31958;51.756;-2.556;2023-07-13T03:22:39;11.68;;;4.05;;
45476;SDS011;31958;51.756;-2.556;2023-07-13T03:25:05;12.10;;;4.03;;
45476;SDS011;31958;51.756;-2.556;2023-07-13T03:27:30;15.07;;;3.63;;
45476;SDS011;31958;51.756;-2.556;2023-07-13T03:29:56;8.70;;;3.28;;
45476;SDS011;31958;51.756;-2.556;2023-07-13T03:32:21;8.30;;;3.30;;
45476;SDS011;31958;51.756;-2.556;2023-07-13T03:34:46;10.60;;;3.60;;
45476;SDS011;31958;51.756;-2.556;2023-07-13T03:37:12;10.40;;;3.80;;
45476;SDS011;31958;51.756;-2.556;2023-07-13T03:39:37;14.10;;;3.65;;
45476;SDS011;31958;51.756;-2.556;2023-07-13T03:42:02;10.60;;;3.65;;
45476;SDS011;31958;51.756;-2.556;2023-07-13T03:44:28;10.55;;;3.65;;
45476;SDS011;31958;51.756;-2.556;2023-07-13T03:46:54;11.98;;;3.33;;
45476;SDS011;31958;51.756;-2.556;2023-07-13T03:49:19;12.90;;;3.80;;
45476;SDS011;31958;51.756;-2.556;2023-07-13T03:51:44;11.43;;;3.95;;
45476;SDS011;31958;51.756;-2.556;2023-07-13T03:54:10;11.35;;;3.50;;
45476;SDS011;31958;51.756;-2.556;2023-07-13T03:56:35;11.90;;;3.45;;
45476;SDS011;31958;51.756;-2.556;2023-07-13T03:59:00;9.98;;;3.78;;
45476;SDS011;31958;51.756;-2.556;2023-07-13T04:01:27;8.40;;;3.25;;
45476;SDS011;31958;51.756;-2.556;2023-07-13T04:03:52;9.43;;;3.42;;
45476;SDS011;31958;51.756;-2.556;2023-07-13T04:06:19;9.25;;;3.47;;
45476;SDS011;31958;51.756;-2.556;2023-07-13T04:08:47;8.50;;;3.13;;
45476;SDS011;31958;51.756;-2.556;2023-07-13T04:11:14;9.15;;;3.38;;
45476;SDS011;31958;51.756;-2.556;2023-07-13T04:13:39;12.57;;;3.33;;
45476;SDS011;31958;51.756;-2.556;2023-07-13T04:16:04;9.05;;;3.10;;
45476;SDS011;31958;51.756;-2.556;2023-07-13T04:18:30;13.68;;;3.50;;
45476;SDS011;31958;51.756;-2.556;2023-07-13T04:20:55;6.03;;;2.90;;
45476;SDS011;31958;51.756;-2.556;2023-07-13T04:23:21;13.38;;;3.58;;
45476;SDS011;31958;51.756;-2.556;2023-07-13T04:25:46;12.20;;;3.25;;
45476;SDS011;31958;51.756;-2.556;2023-07-13T04:28:14;11.65;;;3.58;;
45476;SDS011;31958;51.756;-2.556;2023-07-13T04:30:40;12.90;;;3.60;;
45476;SDS011;31958;51.756;-2.556;2023-07-13T04:33:05;14.73;;;3.20;;
45476;SDS011;31958;51.756;-2.556;2023-07-13T04:35:30;10.75;;;3.72;;
45476;SDS011;31958;51.756;-2.556;2023-07-13T04:37:56;7.18;;;3.60;;
45476;SDS011;31958;51.756;-2.556;2023-07-13T04:40:21;9.52;;;3.97;;
45476;SDS011;31958;51.756;-2.556;2023-07-13T04:42:47;9.80;;;3.30;;
45476;SDS011;31958;51.756;-2.556;2023-07-13T04:45:13;11.30;;;3.33;;
45476;SDS011;31958;51.756;-2.556;2023-07-13T04:47:39;16.13;;;4.10;;
45476;SDS011;31958;51.756;-2.556;2023-07-13T04:50:05;10.90;;;3.40;;
45476;SDS011;31958;51.756;-2.556;2023-07-13T04:52:31;9.95;;;3.42;;
45476;SDS011;31958;51.756;-2.556;2023-07-13T04:54:58;10.57;;;3.40;;
45476;SDS011;31958;51.756;-2.556;2023-07-13T04:57:23;10.75;;;3.22;;
45476;SDS011;31958;51.756;-2.556;2023-07-13T04:59:49;6.38;;;3.08;;
45476;SDS011;31958;51.756;-2.556;2023-07-13T05:02:14;13.50;;;3.40;;
45476;SDS011;31958;51.756;-2.556;2023-07-13T05:04:39;10.35;;;3.22;;
45476;SDS011;31958;51.756;-2.556;2023-07-13T05:07:05;4.72;;;2.83;;
45476;SDS011;31958;51.756;-2.556;2023-07-13T05:09:31;10.98;;;2.95;;
45476;SDS011;31958;51.756;-2.556;2023-07-13T05:11:56;8.32;;;3.22;;
45476;SDS011;31958;51.756;-2.556;2023-07-13T05:14:21;8.60;;;3.13;;
45476;SDS011;31958;51.756;-2.556;2023-07-13T05:16:47;8.13;;;3.05;;
45476;SDS011;31958;51.756;-2.556;2023-07-13T05:19:12;6.43;;;3.08;;
45476;SDS011;31958;51.756;-2.556;2023-07-13T05:21:37;8.88;;;3.17;;
45476;SDS011;31958;51.756;-2.556;2023-07-13T05:24:03;5.70;;;2.80;;
45476;SDS011;31958;51.756;-2.556;2023-07-13T05:26:28;9.10;;;2.92;;
45476;SDS011;31958;51.756;-2.556;2023-07-13T05:28:53;6.63;;;2.90;;
45476;SDS011;31958;51.756;-2.556;2023-07-13T05:31:19;10.13;;;2.97;;
45476;SDS011;31958;51.756;-2.556;2023-07-13T05:33:45;6.88;;;2.85;;
45476;SDS011;31958;51.756;-2.556;2023-07-13T05:36:10;10.02;;;3.20;;
45476;SDS011;31958;51.756;-2.556;2023-07-13T05:38:35;10.07;;;3.40;;
45476;SDS011;31958;51.756;-2.556;2023-07-13T05:41:01;11.57;;;3.83;;
45476;SDS011;31958;51.756;-2.556;2023-07-13T05:43:26;9.68;;;3.53;;
45476;SDS011;31958;51.756;-2.556;2023-07-13T05:45:55;9.40;;;3.13;;
45476;SDS011;31958;51.756;-2.556;2023-07-13T05:48:21;11.75;;;3.50;;
45476;SDS011;31958;51.756;-2.556;2023-07-13T05:50:47;8.88;;;2.95;;
45476;SDS011;31958;51.756;-2.556;2023-07-13T05:53:12;12.48;;;3.60;;
45476;SDS011;31958;51.756;-2.556;2023-07-13T05:55:44;12.05;;;3.60;;
45476;SDS011;31958;51.756;-2.556;2023-07-13T05:58:12;9.05;;;3.90;;
45476;SDS011;31958;51.756;-2.556;2023-07-13T06:00:37;12.10;;;3.67;;
45476;SDS011;31958;51.756;-2.556;2023-07-13T06:03:03;12.27;;;3.63;;
45476;SDS011;31958;51.756;-2.556;2023-07-13T06:05:28;9.68;;;3.65;;
45476;SDS011;31958;51.756;-2.556;2023-07-13T06:07:54;6.78;;;3.20;;
45476;SDS011;31958;51.756;-2.556;2023-07-13T06:10:19;15.45;;;3.30;;
45476;SDS011;31958;51.756;-2.556;2023-07-13T06:12:45;10.05;;;3.00;;
45476;SDS011;31958;51.756;-2.556;2023-07-13T06:15:10;6.82;;;2.80;;
45476;SDS011;31958;51.756;-2.556;2023-07-13T06:17:36;7.63;;;3.05;;
45476;SDS011;31958;51.756;-2.556;2023-07-13T06:20:01;9.73;;;2.40;;
45476;SDS011;31958;51.756;-2.556;2023-07-13T06:22:26;7.07;;;2.78;;
45476;SDS011;31958;51.756;-2.556;2023-07-13T06:24:52;5.55;;;3.38;;
45476;SDS011;31958;51.756;-2.556;2023-07-13T06:27:17;8.52;;;4.13;;
45476;SDS011;31958;51.756;-2.556;2023-07-13T06:29:42;7.97;;;2.72;;
45476;SDS011;31958;51.756;-2.556;2023-07-13T06:32:10;9.52;;;3.08;;
45476;SDS011;31958;51.756;-2.556;2023-07-13T06:34:35;11.77;;;3.30;;
45476;SDS011;31958;51.756;-2.556;2023-07-13T06:37:00;7.80;;;3.38;;
45476;SDS011;31958;51.756;-2.556;2023-07-13T06:39:26;8.60;;;3.75;;
45476;SDS011;31958;51.756;-2.556;2023-07-13T06:41:51;12.52;;;3.53;;
45476;SDS011;31958;51.756;-2.556;2023-07-13T06:44:16;7.22;;;3.60;;
45476;SDS011;31958;51.756;-2.556;2023-07-13T06:46:42;6.72;;;3.35;;
45476;SDS011;31958;51.756;-2.556;2023-07-13T06:49:08;11.38;;;3.50;;
45476;SDS011;31958;51.756;-2.556;2023-07-13T06:51:34;9.20;;;3.08;;
45476;SDS011;31958;51.756;-2.556;2023-07-13T06:53:59;5.88;;;2.95;;
45476;SDS011;31958;51.756;-2.556;2023-07-13T06:56:24;7.45;;;2.90;;
45476;SDS011;31958;51.756;-2.556;2023-07-13T06:58:50;9.52;;;3.08;;
45476;SDS011;31958;51.756;-2.556;2023-07-13T07:01:15;4.80;;;2.50;;
45476;SDS011;31958;51.756;-2.556;2023-07-13T07:03:40;7.85;;;2.83;;
45476;SDS011;31958;51.756;-2.556;2023-07-13T07:06:10;7.45;;;2.67;;
45476;SDS011;31958;51.756;-2.556;2023-07-13T07:08:40;6.68;;;2.92;;
45476;SDS011;31958;51.756;-2.556;2023-07-13T07:11:05;7.25;;;2.58;;
45476;SDS011;31958;51.756;-2.556;2023-07-13T07:13:32;4.38;;;2.40;;
45476;SDS011;31958;51.756;-2.556;2023-07-13T07:15:58;7.35;;;3.20;;
45476;SDS011;31958;51.756;-2.556;2023-07-13T07:18:25;6.82;;;3.40;;
45476;SDS011;31958;51.756;-2.556;2023-07-13T07:20:50;11.73;;;3.22;;
45476;SDS011;31958;51.756;-2.556;2023-07-13T07:23:15;9.90;;;3.45;;
45476;SDS011;31958;51.756;-2.556;2023-07-13T07:25:42;10.45;;;3.00;;
45476;SDS011;31958;51.756;-2.556;2023-07-13T07:28:09;9.10;;;3.28;;
45476;SDS011;31958;51.756;-2.556;2023-07-13T07:30:34;5.68;;;3.28;;
45476;SDS011;31958;51.756;-2.556;2023-07-13T07:33:00;4.60;;;3.08;;
45476;SDS011;31958;51.756;-2.556;2023-07-13T07:35:26;9.90;;;3.40;;
45476;SDS011;31958;51.756;-2.556;2023-07-13T07:37:51;8.88;;;3.05;;
45476;SDS011;31958;51.756;-2.556;2023-07-13T07:40:17;9.18;;;3.08;;
45476;SDS011;31958;51.756;-2.556;2023-07-13T07:42:43;6.60;;;3.00;;
45476;SDS011;31958;51.756;-2.556;2023-07-13T07:45:08;5.70;;;2.50;;
45476;SDS011;31958;51.756;-2.556;2023-07-13T07:47:36;6.53;;;2.72;;
45476;SDS011;31958;51.756;-2.556;2023-07-13T07:50:01;5.82;;;2.10;;
45476;SDS011;31958;51.756;-2.556;2023-07-13T07:52:27;6.45;;;2.30;;
45476;SDS011;31958;51.756;-2.556;2023-07-13T07:54:52;5.15;;;2.22;;
45476;SDS011;31958;51.756;-2.556;2023-07-13T07:57:17;11.68;;;2.35;;
45476;SDS011;31958;51.756;-2.556;2023-07-13T07:59:43;4.53;;;1.65;;
45476;SDS011;31958;51.756;-2.556;2023-07-13T08:02:09;6.82;;;1.83;;
45476;SDS011;31958;51.756;-2.556;2023-07-13T08:04:35;6.15;;;1.52;;
45476;SDS011;31958;51.756;-2.556;2023-07-13T08:07:00;4.82;;;1.73;;
45476;SDS011;31958;51.756;-2.556;2023-07-13T08:09:27;5.50;;;1.98;;
45476;SDS011;31958;51.756;-2.556;2023-07-13T08:11:53;5.57;;;1.90;;
45476;SDS011;31958;51.756;-2.556;2023-07-13T08:14:19;13.38;;;5.53;;
45476;SDS011;31958;51.756;-2.556;2023-07-13T08:16:45;9.27;;;2.40;;
45476;SDS011;31958;51.756;-2.556;2023-07-13T08:19:10;7.05;;;2.53;;
45476;SDS011;31958;51.756;-2.556;2023-07-13T08:21:36;5.28;;;2.00;;
45476;SDS011;31958;51.756;-2.556;2023-07-13T08:24:02;5.25;;;2.00;;
45476;SDS011;31958;51.756;-2.556;2023-07-13T08:26:27;3.65;;;1.73;;
45476;SDS011;31958;51.756;-2.556;2023-07-13T08:28:52;4.68;;;1.80;;
45476;SDS011;31958;51.756;-2.556;2023-07-13T08:31:18;5.53;;;2.08;;
45476;SDS011;31958;51.756;-2.556;2023-07-13T08:33:43;3.83;;;1.90;;
45476;SDS011;31958;51.756;-2.556;2023-07-13T08:36:09;4.38;;;1.70;;
45476;SDS011;31958;51.756;-2.556;2023-07-13T08:38:34;5.75;;;1.90;;
45476;SDS011;31958;51.756;-2.556;2023-07-13T08:41:01;7.22;;;2.97;;
45476;SDS011;31958;51.756;-2.556;2023-07-13T08:43:35;3.40;;;1.77;;
45476;SDS011;31958;51.756;-2.556;2023-07-13T08:49:20;6.20;;;1.80;;
45476;SDS011;31958;51.756;-2.556;2023-07-13T08:54:05;6.28;;;1.70;;
45476;SDS011;31958;51.756;-2.556;2023-07-13T08:57:10;8.90;;;1.60;;
45476;SDS011;31958;51.756;-2.556;2023-07-13T08:59:39;6.90;;;2.05;;
45476;SDS011;31958;51.756;-2.556;2023-07-13T09:04:51;6.70;;;2.08;;
45476;SDS011;31958;51.756;-2.556;2023-07-13T09:10:12;6.18;;;1.50;;
45476;SDS011;31958;51.756;-2.556;2023-07-13T09:15:21;6.40;;;1.65;;
45476;SDS011;31958;51.756;-2.556;2023-07-13T09:17:53;4.00;;;1.30;;
45476;SDS011;31958;51.756;-2.556;2023-07-13T09:22:52;3.30;;;1.20;;
45476;SDS011;31958;51.756;-2.556;2023-07-13T09:25:29;9.32;;;1.60;;
45476;SDS011;31958;51.756;-2.556;2023-07-13T09:27:58;4.82;;;1.33;;
45476;SDS011;31958;51.756;-2.556;2023-07-13T09:30:30;5.35;;;1.35;;
45476;SDS011;31958;51.756;-2.556;2023-07-13T09:32:56;5.20;;;1.30;;
45476;SDS011;31958;51.756;-2.556;2023-07-13T09:35:24;7.65;;;1.38;;
45476;SDS011;31958;51.756;-2.556;2023-07-13T09:37:55;2.08;;;1.00;;
45476;SDS011;31958;51.756;-2.556;2023-07-13T09:40:40;4.38;;;1.17;;
45476;SDS011;31958;51.756;-2.556;2023-07-13T09:43:13;2.42;;;1.08;;
45476;SDS011;31958;51.756;-2.556;2023-07-13T09:45:39;2.30;;;1.00;;
45476;SDS011;31958;51.756;-2.556;2023-07-13T09:48:06;4.43;;;1.33;;
45476;SDS011;31958;51.756;-2.556;2023-07-13T09:50:35;6.20;;;1.40;;
45476;SDS011;31958;51.756;-2.556;2023-07-13T09:53:01;4.70;;;1.17;;
45476;SDS011;31958;51.756;-2.556;2023-07-13T09:55:36;7.40;;;1.30;;
45476;SDS011;31958;51.756;-2.556;2023-07-13T09:58:16;4.93;;;1.25;;
45476;SDS011;31958;51.756;-2.556;2023-07-13T10:00:53;3.15;;;1.20;;
45476;SDS011;31958;51.756;-2.556;2023-07-13T10:03:24;7.32;;;1.63;;
45476;SDS011;31958;51.756;-2.556;2023-07-13T10:05:52;4.15;;;1.00;;
45476;SDS011;31958;51.756;-2.556;2023-07-13T10:08:22;4.53;;;1.23;;
45476;SDS011;31958;51.756;-2.556;2023-07-13T10:10:54;7.60;;;1.30;;
45476;SDS011;31958;51.756;-2.556;2023-07-13T10:16:20;2.28;;;0.77;;
45476;SDS011;31958;51.756;-2.556;2023-07-13T10:18:52;6.30;;;1.92;;
45476;SDS011;31958;51.756;-2.556;2023-07-13T10:21:20;2.67;;;1.10;;
45476;SDS011;31958;51.756;-2.556;2023-07-13T10:23:47;3.40;;;1.25;;
45476;SDS011;31958;51.756;-2.556;2023-07-13T10:26:18;10.88;;;1.10;;
45476;SDS011;31958;51.756;-2.556;2023-07-13T10:28:47;7.78;;;1.40;;
45476;SDS011;31958;51.756;-2.556;2023-07-13T10:31:16;6.28;;;0.93;;
45476;SDS011;31958;51.756;-2.556;2023-07-13T10:33:42;3.72;;;1.20;;
45476;SDS011;31958;51.756;-2.556;2023-07-13T10:36:19;3.83;;;1.20;;
45476;SDS011;31958;51.756;-2.556;2023-07-13T10:38:48;3.20;;;0.85;;
45476;SDS011;31958;51.756;-2.556;2023-07-13T10:41:16;7.13;;;1.15;;
45476;SDS011;31958;51.756;-2.556;2023-07-13T10:43:44;4.10;;;1.23;;
45476;SDS011;31958;51.756;-2.556;2023-07-13T10:46:12;5.72;;;1.00;;
45476;SDS011;31958;51.756;-2.556;2023-07-13T10:48:40;5.20;;;1.20;;
45476;SDS011;31958;51.756;-2.556;2023-07-13T10:51:08;5.20;;;1.20;;
45476;SDS011;31958;51.756;-2.556;2023-07-13T10:53:36;6.75;;;1.30;;
45476;SDS011;31958;51.756;-2.556;2023-07-13T10:56:03;5.50;;;1.33;;
45476;SDS011;31958;51.756;-2.556;2023-07-13T10:58:44;5.72;;;1.58;;
45476;SDS011;31958;51.756;-2.556;2023-07-13T11:01:14;3.78;;;1.20;;
45476;SDS011;31958;51.756;-2.556;2023-07-13T11:13:58;3.70;;;1.23;;
45476;SDS011;31958;51.756;-2.556;2023-07-13T11:16:41;3.63;;;1.30;;
45476;SDS011;31958;51.756;-2.556;2023-07-13T11:22:02;5.90;;;1.27;;
45476;SDS011;31958;51.756;-2.556;2023-07-13T11:27:21;29.70;;;12.23;;
45476;SDS011;31958;51.756;-2.556;2023-07-13T11:38:27;14.85;;;7.05;;
45476;SDS011;31958;51.756;-2.556;2023-07-13T11:40:55;13.50;;;5.80;;
45476;SDS011;31958;51.756;-2.556;2023-07-13T11:43:21;8.93;;;4.47;;
45476;SDS011;31958;51.756;-2.556;2023-07-13T11:45:50;6.13;;;2.97;;
45476;SDS011;31958;51.756;-2.556;2023-07-13T11:48:23;8.10;;;2.80;;
45476;SDS011;31958;51.756;-2.556;2023-07-13T11:50:56;10.52;;;2.10;;
45476;SDS011;31958;51.756;-2.556;2023-07-13T11:53:28;8.20;;;1.50;;
45476;SDS011;31958;51.756;-2.556;2023-07-13T11:55:55;4.47;;;1.50;;
45476;SDS011;31958;51.756;-2.556;2023-07-13T11:58:23;6.43;;;1.70;;
45476;SDS011;31958;51.756;-2.556;2023-07-13T12:00:50;4.25;;;1.55;;
45476;SDS011;31958;51.756;-2.556;2023-07-13T12:03:18;2.95;;;1.50;;
45476;SDS011;31958;51.756;-2.556;2023-07-13T12:05:55;6.88;;;2.15;;
45476;SDS011;31958;51.756;-2.556;2023-07-13T12:08:25;3.83;;;1.70;;
45476;SDS011;31958;51.756;-2.556;2023-07-13T12:11:03;4.47;;;1.88;;
45476;SDS011;31958;51.756;-2.556;2023-07-13T12:13:35;8.52;;;1.90;;
45476;SDS011;31958;51.756;-2.556;2023-07-13T12:16:07;3.80;;;1.80;;
45476;SDS011;31958;51.756;-2.556;2023-07-13T12:18:57;9.27;;;2.20;;
45476;SDS011;31958;51.756;-2.556;2023-07-13T12:21:38;5.68;;;2.25;;
45476;SDS011;31958;51.756;-2.556;2023-07-13T12:24:04;5.95;;;1.98;;
45476;SDS011;31958;51.756;-2.556;2023-07-13T12:26:30;3.60;;;2.10;;
45476;SDS011;31958;51.756;-2.556;2023-07-13T12:28:56;4.43;;;1.80;;
45476;SDS011;31958;51.756;-2.556;2023-07-13T12:36:23;5.60;;;2.28;;
45476;SDS011;31958;51.756;-2.556;2023-07-13T12:38:49;9.85;;;2.30;;
45476;SDS011;31958;51.756;-2.556;2023-07-13T12:41:14;7.55;;;1.90;;
45476;SDS011;31958;51.756;-2.556;2023-07-13T12:43:40;6.20;;;2.20;;
45476;SDS011;31958;51.756;-2.556;2023-07-13T12:46:15;7.40;;;2.33;;
45476;SDS011;31958;51.756;-2.556;2023-07-13T12:48:42;6.30;;;1.98;;
45476;SDS011;31958;51.756;-2.556;2023-07-13T12:51:13;5.07;;;1.98;;
45476;SDS011;31958;51.756;-2.556;2023-07-13T12:53:43;7.50;;;2.17;;
45476;SDS011;31958;51.756;-2.556;2023-07-13T12:56:17;5.85;;;2.33;;
45476;SDS011;31958;51.756;-2.556;2023-07-13T12:58:45;4.55;;;2.20;;
45476;SDS011;31958;51.756;-2.556;2023-07-13T13:01:13;4.88;;;2.10;;
45476;SDS011;31958;51.756;-2.556;2023-07-13T13:03:40;5.05;;;1.85;;
45476;SDS011;31958;51.756;-2.556;2023-07-13T13:08:43;7.00;;;2.17;;
45476;SDS011;31958;51.756;-2.556;2023-07-13T13:11:10;6.43;;;1.95;;
45476;SDS011;31958;51.756;-2.556;2023-07-13T13:13:35;8.45;;;1.73;;
45476;SDS011;31958;51.756;-2.556;2023-07-13T13:19:44;4.97;;;1.70;;
45476;SDS011;31958;51.756;-2.556;2023-07-13T13:21:52;3.00;;;1.30;;
45476;SDS011;31958;51.756;-2.556;2023-07-13T13:24:20;5.93;;;1.30;;
45476;SDS011;31958;51.756;-2.556;2023-07-13T13:26:48;3.42;;;1.20;;
45476;SDS011;31958;51.756;-2.556;2023-07-13T13:31:41;3.28;;;1.20;;
45476;SDS011;31958;51.756;-2.556;2023-07-13T13:34:08;5.97;;;1.52;;
45476;SDS011;31958;51.756;-2.556;2023-07-13T13:36:35;2.47;;;1.30;;
45476;SDS011;31958;51.756;-2.556;2023-07-13T13:39:00;4.97;;;1.25;;
45476;SDS011;31958;51.756;-2.556;2023-07-13T13:41:27;7.32;;;1.25;;
45476;SDS011;31958;51.756;-2.556;2023-07-13T13:43:52;5.35;;;1.25;;
45476;SDS011;31958;51.756;-2.556;2023-07-13T13:46:18;2.45;;;0.93;;
45476;SDS011;31958;51.756;-2.556;2023-07-13T13:48:45;4.18;;;1.10;;
45476;SDS011;31958;51.756;-2.556;2023-07-13T13:51:13;4.43;;;1.10;;
45476;SDS011;31958;51.756;-2.556;2023-07-13T13:53:41;2.25;;;0.98;;
45476;SDS011;31958;51.756;-2.556;2023-07-13T13:56:07;3.13;;;1.30;;
45476;SDS011;31958;51.756;-2.556;2023-07-13T13:58:33;3.65;;;1.52;;
45476;SDS011;31958;51.756;-2.556;2023-07-13T14:00:58;2.83;;;1.10;;
45476;SDS011;31958;51.756;-2.556;2023-07-13T14:03:23;3.22;;;1.17;;
45476;SDS011;31958;51.756;-2.556;2023-07-13T14:05:49;3.28;;;1.30;;
45476;SDS011;31958;51.756;-2.556;2023-07-13T14:08:16;4.90;;;1.50;;
45476;SDS011;31958;51.756;-2.556;2023-07-13T14:10:44;5.68;;;1.60;;
45476;SDS011;31958;51.756;-2.556;2023-07-13T14:13:15;6.38;;;1.63;;
45476;SDS011;31958;51.756;-2.556;2023-07-13T14:18:08;5.50;;;1.30;;
45476;SDS011;31958;51.756;-2.556;2023-07-13T14:20:34;6.50;;;1.30;;
45476;SDS011;31958;51.756;-2.556;2023-07-13T14:22:59;4.82;;;1.40;;
45476;SDS011;31958;51.756;-2.556;2023-07-13T14:25:25;3.00;;;1.38;;
45476;SDS011;31958;51.756;-2.556;2023-07-13T14:27:52;6.50;;;1.20;;
45476;SDS011;31958;51.756;-2.556;2023-07-13T14:30:21;5.05;;;1.52;;
45476;SDS011;31958;51.756;-2.556;2023-07-13T14:32:47;2.47;;;1.10;;
45476;SDS011;31958;51.756;-2.556;2023-07-13T14:35:14;4.57;;;1.30;;
45476;SDS011;31958;51.756;-2.556;2023-07-13T14:37:41;3.28;;;1.30;;
45476;SDS011;31958;51.756;-2.556;2023-07-13T14:40:14;6.60;;;1.40;;
45476;SDS011;31958;51.756;-2.556;2023-07-13T14:42:40;4.95;;;1.95;;
45476;SDS011;31958;51.756;-2.556;2023-07-13T14:45:05;5.03;;;1.55;;
45476;SDS011;31958;51.756;-2.556;2023-07-13T14:47:37;4.90;;;1.40;;
45476;SDS011;31958;51.756;-2.556;2023-07-13T14:50:02;4.75;;;1.35;;
45476;SDS011;31958;51.756;-2.556;2023-07-13T14:52:30;2.72;;;1.33;;
45476;SDS011;31958;51.756;-2.556;2023-07-13T14:54:55;3.25;;;1.27;;
45476;SDS011;31958;51.756;-2.556;2023-07-13T14:57:20;5.25;;;1.40;;
45476;SDS011;31958;51.756;-2.556;2023-07-13T14:59:46;3.15;;;1.35;;
45476;SDS011;31958;51.756;-2.556;2023-07-13T15:02:16;4.82;;;1.10;;
45476;SDS011;31958;51.756;-2.556;2023-07-13T15:04:50;3.50;;;1.30;;
45476;SDS011;31958;51.756;-2.556;2023-07-13T15:07:16;2.97;;;1.20;;
45476;SDS011;31958;51.756;-2.556;2023-07-13T15:09:43;5.25;;;1.33;;
45476;SDS011;31958;51.756;-2.556;2023-07-13T15:12:09;3.85;;;1.30;;
45476;SDS011;31958;51.756;-2.556;2023-07-13T15:14:34;4.88;;;1.30;;
45476;SDS011;31958;51.756;-2.556;2023-07-13T15:16:59;2.40;;;1.02;;
45476;SDS011;31958;51.756;-2.556;2023-07-13T15:19:25;4.05;;;1.30;;
45476;SDS011;31958;51.756;-2.556;2023-07-13T15:21:51;18.20;;;1.80;;
45476;SDS011;31958;51.756;-2.556;2023-07-13T15:24:17;4.13;;;1.27;;
45476;SDS011;31958;51.756;-2.556;2023-07-13T15:26:42;4.82;;;1.20;;
45476;SDS011;31958;51.756;-2.556;2023-07-13T15:29:13;3.47;;;1.00;;